sensor_id;sensor_type;location;lat;lon;timestamp;P1;durP1;ratioP1;P2;durP2;ratioP2
66603;SDS011;53460;39.612;8.822;2023-09-08T00:01:07;3.53;;;2.78;;
66603;SDS011;53460;39.612;8.822;2023-09-08T00:03:33;5.18;;;2.53;;
66603;SDS011;53460;39.612;8.822;2023-09-08T00:05:58;5.07;;;2.28;;
66603;SDS011;53460;39.612;8.822;2023-09-08T00:08:24;4.28;;;2.72;;
66603;SDS011;53460;39.612;8.822;2023-09-08T00:10:49;4.28;;;2.47;;
66603;SDS011;53460;39.612;8.822;2023-09-08T00:13:14;5.47;;;2.83;;
66603;SDS011;53460;39.612;8.822;2023-09-08T00:15:40;3.20;;;2.70;;
66603;SDS011;53460;39.612;8.822;2023-09-08T00:18:05;5.63;;;3.80;;
66603;SDS011;53460;39.612;8.822;2023-09-08T00:20:31;5.38;;;2.88;;
66603;SDS011;53460;39.612;8.822;2023-09-08T00:22:56;4.80;;;3.00;;
66603;SDS011;53460;39.612;8.822;2023-09-08T00:25:22;3.90;;;3.08;;
66603;SDS011;53460;39.612;8.822;2023-09-08T00:27:47;6.13;;;2.95;;
66603;SDS011;53460;39.612;8.822;2023-09-08T00:30:13;4.93;;;3.15;;
66603;SDS011;53460;39.612;8.822;2023-09-08T00:32:38;4.30;;;3.10;;
66603;SDS011;53460;39.612;8.822;2023-09-08T00:35:07;5.15;;;2.60;;
66603;SDS011;53460;39.612;8.822;2023-09-08T00:37:33;5.57;;;2.92;;
66603;SDS011;53460;39.612;8.822;2023-09-08T00:39:59;4.53;;;2.70;;
66603;SDS011;53460;39.612;8.822;2023-09-08T00:42:24;3.17;;;2.60;;
66603;SDS011;53460;39.612;8.822;2023-09-08T00:44:49;6.13;;;2.72;;
66603;SDS011;53460;39.612;8.822;2023-09-08T00:47:15;4.75;;;2.97;;
66603;SDS011;53460;39.612;8.822;2023-09-08T00:49:40;4.05;;;2.90;;
66603;SDS011;53460;39.612;8.822;2023-09-08T00:52:06;3.90;;;2.85;;
66603;SDS011;53460;39.612;8.822;2023-09-08T00:54:31;7.05;;;2.60;;
66603;SDS011;53460;39.612;8.822;2023-09-08T00:56:57;5.43;;;3.50;;
66603;SDS011;53460;39.612;8.822;2023-09-08T00:59:22;4.85;;;2.67;;
66603;SDS011;53460;39.612;8.822;2023-09-08T01:01:50;3.85;;;2.38;;
66603;SDS011;53460;39.612;8.822;2023-09-08T01:04:15;7.47;;;2.80;;
66603;SDS011;53460;39.612;8.822;2023-09-08T01:06:42;6.45;;;3.22;;
66603;SDS011;53460;39.612;8.822;2023-09-08T01:09:08;2.97;;;2.67;;
66603;SDS011;53460;39.612;8.822;2023-09-08T01:11:34;4.03;;;2.72;;
66603;SDS011;53460;39.612;8.822;2023-09-08T01:13:59;3.35;;;2.80;;
66603;SDS011;53460;39.612;8.822;2023-09-08T01:16:25;5.45;;;2.80;;
66603;SDS011;53460;39.612;8.822;2023-09-08T01:18:50;3.83;;;2.67;;
66603;SDS011;53460;39.612;8.822;2023-09-08T01:26:26;6.07;;;2.88;;
66603;SDS011;53460;39.612;8.822;2023-09-08T01:28:52;5.53;;;3.08;;
66603;SDS011;53460;39.612;8.822;2023-09-08T01:31:18;3.50;;;2.80;;
66603;SDS011;53460;39.612;8.822;2023-09-08T01:33:44;3.92;;;2.97;;
66603;SDS011;53460;39.612;8.822;2023-09-08T01:36:10;5.50;;;2.97;;
66603;SDS011;53460;39.612;8.822;2023-09-08T01:38:36;6.00;;;2.88;;
66603;SDS011;53460;39.612;8.822;2023-09-08T01:41:02;4.22;;;3.17;;
66603;SDS011;53460;39.612;8.822;2023-09-08T01:43:27;3.50;;;2.88;;
66603;SDS011;53460;39.612;8.822;2023-09-08T01:45:53;3.45;;;2.95;;
66603;SDS011;53460;39.612;8.822;2023-09-08T01:48:18;3.90;;;2.70;;
66603;SDS011;53460;39.612;8.822;2023-09-08T01:50:44;4.20;;;2.97;;
66603;SDS011;53460;39.612;8.822;2023-09-08T01:53:12;4.55;;;3.05;;
66603;SDS011;53460;39.612;8.822;2023-09-08T01:55:37;4.95;;;3.13;;
66603;SDS011;53460;39.612;8.822;2023-09-08T01:58:03;6.90;;;3.15;;
66603;SDS011;53460;39.612;8.822;2023-09-08T02:00:28;4.75;;;3.30;;
66603;SDS011;53460;39.612;8.822;2023-09-08T02:02:54;4.07;;;3.33;;
66603;SDS011;53460;39.612;8.822;2023-09-08T02:05:19;5.78;;;3.10;;
66603;SDS011;53460;39.612;8.822;2023-09-08T02:07:45;3.60;;;2.67;;
66603;SDS011;53460;39.612;8.822;2023-09-08T02:10:10;4.85;;;2.92;;
66603;SDS011;53460;39.612;8.822;2023-09-08T02:12:36;4.35;;;2.67;;
66603;SDS011;53460;39.612;8.822;2023-09-08T02:15:01;3.63;;;3.33;;
66603;SDS011;53460;39.612;8.822;2023-09-08T02:17:27;5.90;;;2.80;;
66603;SDS011;53460;39.612;8.822;2023-09-08T02:19:52;7.93;;;2.88;;
66603;SDS011;53460;39.612;8.822;2023-09-08T02:22:18;3.80;;;2.63;;
66603;SDS011;53460;39.612;8.822;2023-09-08T02:24:44;3.45;;;3.10;;
66603;SDS011;53460;39.612;8.822;2023-09-08T02:27:10;7.68;;;3.50;;
66603;SDS011;53460;39.612;8.822;2023-09-08T02:29:35;5.13;;;3.03;;
66603;SDS011;53460;39.612;8.822;2023-09-08T02:32:01;7.53;;;3.25;;
66603;SDS011;53460;39.612;8.822;2023-09-08T02:34:26;4.43;;;3.20;;
66603;SDS011;53460;39.612;8.822;2023-09-08T02:36:52;7.45;;;2.90;;
66603;SDS011;53460;39.612;8.822;2023-09-08T02:39:21;4.78;;;2.83;;
66603;SDS011;53460;39.612;8.822;2023-09-08T02:41:48;3.97;;;3.22;;
66603;SDS011;53460;39.612;8.822;2023-09-08T02:44:14;7.75;;;3.25;;
66603;SDS011;53460;39.612;8.822;2023-09-08T02:46:39;4.63;;;3.10;;
66603;SDS011;53460;39.612;8.822;2023-09-08T02:49:05;3.70;;;3.08;;
66603;SDS011;53460;39.612;8.822;2023-09-08T02:51:31;3.67;;;2.70;;
66603;SDS011;53460;39.612;8.822;2023-09-08T02:53:56;4.43;;;2.83;;
66603;SDS011;53460;39.612;8.822;2023-09-08T02:56:22;6.47;;;3.30;;
66603;SDS011;53460;39.612;8.822;2023-09-08T02:58:47;4.78;;;2.90;;
66603;SDS011;53460;39.612;8.822;2023-09-08T03:01:13;4.15;;;3.00;;
66603;SDS011;53460;39.612;8.822;2023-09-08T03:03:40;4.28;;;3.10;;
66603;SDS011;53460;39.612;8.822;2023-09-08T03:06:05;3.00;;;2.70;;
66603;SDS011;53460;39.612;8.822;2023-09-08T03:08:31;6.60;;;3.35;;
66603;SDS011;53460;39.612;8.822;2023-09-08T03:10:57;5.15;;;3.10;;
66603;SDS011;53460;39.612;8.822;2023-09-08T03:13:23;3.42;;;2.80;;
66603;SDS011;53460;39.612;8.822;2023-09-08T03:15:48;3.42;;;3.05;;
66603;SDS011;53460;39.612;8.822;2023-09-08T03:18:14;3.53;;;3.20;;
66603;SDS011;53460;39.612;8.822;2023-09-08T03:20:40;6.05;;;3.65;;
66603;SDS011;53460;39.612;8.822;2023-09-08T03:23:05;4.50;;;2.95;;
66603;SDS011;53460;39.612;8.822;2023-09-08T03:25:31;3.63;;;3.03;;
66603;SDS011;53460;39.612;8.822;2023-09-08T03:27:56;5.45;;;2.75;;
66603;SDS011;53460;39.612;8.822;2023-09-08T03:30:22;3.20;;;2.90;;
66603;SDS011;53460;39.612;8.822;2023-09-08T03:32:47;8.63;;;3.08;;
66603;SDS011;53460;39.612;8.822;2023-09-08T03:35:13;5.68;;;3.08;;
66603;SDS011;53460;39.612;8.822;2023-09-08T03:37:38;3.10;;;2.67;;
66603;SDS011;53460;39.612;8.822;2023-09-08T03:40:04;5.57;;;3.22;;
66603;SDS011;53460;39.612;8.822;2023-09-08T03:42:31;4.18;;;2.60;;
66603;SDS011;53460;39.612;8.822;2023-09-08T03:44:57;7.88;;;3.10;;
66603;SDS011;53460;39.612;8.822;2023-09-08T03:47:23;5.10;;;2.83;;
66603;SDS011;53460;39.612;8.822;2023-09-08T03:49:49;4.45;;;3.15;;
66603;SDS011;53460;39.612;8.822;2023-09-08T03:52:15;4.10;;;3.00;;
66603;SDS011;53460;39.612;8.822;2023-09-08T03:54:40;3.30;;;3.00;;
66603;SDS011;53460;39.612;8.822;2023-09-08T03:57:06;8.95;;;2.92;;
66603;SDS011;53460;39.612;8.822;2023-09-08T03:59:31;5.00;;;3.03;;
66603;SDS011;53460;39.612;8.822;2023-09-08T04:01:57;4.28;;;2.80;;
66603;SDS011;53460;39.612;8.822;2023-09-08T04:04:23;2.92;;;2.67;;
66603;SDS011;53460;39.612;8.822;2023-09-08T04:06:48;3.20;;;2.90;;
66603;SDS011;53460;39.612;8.822;2023-09-08T04:09:14;2.90;;;2.60;;
66603;SDS011;53460;39.612;8.822;2023-09-08T04:11:39;5.20;;;3.55;;
66603;SDS011;53460;39.612;8.822;2023-09-08T04:14:05;4.03;;;2.97;;
66603;SDS011;53460;39.612;8.822;2023-09-08T04:16:30;3.05;;;2.70;;
66603;SDS011;53460;39.612;8.822;2023-09-08T04:18:56;3.47;;;2.58;;
66603;SDS011;53460;39.612;8.822;2023-09-08T04:21:21;5.68;;;3.00;;
66603;SDS011;53460;39.612;8.822;2023-09-08T04:23:47;10.93;;;3.20;;
66603;SDS011;53460;39.612;8.822;2023-09-08T04:26:12;6.45;;;3.33;;
66603;SDS011;53460;39.612;8.822;2023-09-08T04:28:38;4.93;;;2.88;;
66603;SDS011;53460;39.612;8.822;2023-09-08T04:31:04;5.25;;;2.88;;
66603;SDS011;53460;39.612;8.822;2023-09-08T04:33:30;3.90;;;2.75;;
66603;SDS011;53460;39.612;8.822;2023-09-08T04:35:55;4.40;;;2.58;;
66603;SDS011;53460;39.612;8.822;2023-09-08T04:38:21;2.85;;;2.60;;
66603;SDS011;53460;39.612;8.822;2023-09-08T04:40:46;3.53;;;3.00;;
66603;SDS011;53460;39.612;8.822;2023-09-08T04:43:12;4.85;;;2.80;;
66603;SDS011;53460;39.612;8.822;2023-09-08T04:45:37;3.72;;;2.90;;
66603;SDS011;53460;39.612;8.822;2023-09-08T04:48:04;6.80;;;3.42;;
66603;SDS011;53460;39.612;8.822;2023-09-08T04:50:29;10.45;;;3.10;;
66603;SDS011;53460;39.612;8.822;2023-09-08T04:52:55;6.55;;;3.22;;
66603;SDS011;53460;39.612;8.822;2023-09-08T04:55:20;4.65;;;3.15;;
66603;SDS011;53460;39.612;8.822;2023-09-08T04:57:46;11.55;;;3.40;;
66603;SDS011;53460;39.612;8.822;2023-09-08T05:00:12;22.25;;;4.25;;
66603;SDS011;53460;39.612;8.822;2023-09-08T05:02:38;13.27;;;3.47;;
66603;SDS011;53460;39.612;8.822;2023-09-08T05:05:04;7.78;;;3.30;;
66603;SDS011;53460;39.612;8.822;2023-09-08T05:07:30;7.82;;;3.33;;
66603;SDS011;53460;39.612;8.822;2023-09-08T05:09:56;5.20;;;3.20;;
66603;SDS011;53460;39.612;8.822;2023-09-08T05:12:21;5.10;;;3.30;;
66603;SDS011;53460;39.612;8.822;2023-09-08T05:14:47;4.28;;;3.30;;
66603;SDS011;53460;39.612;8.822;2023-09-08T05:17:12;3.63;;;3.33;;
66603;SDS011;53460;39.612;8.822;2023-09-08T05:19:38;6.50;;;3.10;;
66603;SDS011;53460;39.612;8.822;2023-09-08T05:22:04;5.57;;;3.22;;
66603;SDS011;53460;39.612;8.822;2023-09-08T05:24:30;6.97;;;3.40;;
66603;SDS011;53460;39.612;8.822;2023-09-08T05:26:56;8.20;;;3.50;;
66603;SDS011;53460;39.612;8.822;2023-09-08T05:29:22;11.15;;;4.07;;
66603;SDS011;53460;39.612;8.822;2023-09-08T05:31:47;10.27;;;3.78;;
66603;SDS011;53460;39.612;8.822;2023-09-08T05:34:13;8.40;;;3.50;;
66603;SDS011;53460;39.612;8.822;2023-09-08T05:36:38;17.48;;;3.70;;
66603;SDS011;53460;39.612;8.822;2023-09-08T05:39:06;6.80;;;4.03;;
66603;SDS011;53460;39.612;8.822;2023-09-08T05:41:32;10.38;;;3.92;;
66603;SDS011;53460;39.612;8.822;2023-09-08T05:43:59;14.20;;;4.30;;
66603;SDS011;53460;39.612;8.822;2023-09-08T05:46:25;7.07;;;4.28;;
66603;SDS011;53460;39.612;8.822;2023-09-08T05:48:51;13.23;;;3.60;;
66603;SDS011;53460;39.612;8.822;2023-09-08T05:51:16;8.05;;;3.97;;
66603;SDS011;53460;39.612;8.822;2023-09-08T05:53:43;8.52;;;3.75;;
66603;SDS011;53460;39.612;8.822;2023-09-08T05:56:09;8.80;;;3.47;;
66603;SDS011;53460;39.612;8.822;2023-09-08T05:58:36;6.07;;;3.40;;
66603;SDS011;53460;39.612;8.822;2023-09-08T06:01:05;6.95;;;3.50;;
66603;SDS011;53460;39.612;8.822;2023-09-08T06:03:33;5.93;;;3.53;;
66603;SDS011;53460;39.612;8.822;2023-09-08T06:05:59;7.20;;;3.10;;
66603;SDS011;53460;39.612;8.822;2023-09-08T06:08:25;7.85;;;3.20;;
66603;SDS011;53460;39.612;8.822;2023-09-08T06:10:50;6.22;;;3.08;;
66603;SDS011;53460;39.612;8.822;2023-09-08T06:13:16;9.77;;;3.10;;
66603;SDS011;53460;39.612;8.822;2023-09-08T06:15:42;5.70;;;3.05;;
66603;SDS011;53460;39.612;8.822;2023-09-08T06:18:08;4.65;;;3.20;;
66603;SDS011;53460;39.612;8.822;2023-09-08T06:20:33;5.65;;;3.22;;
66603;SDS011;53460;39.612;8.822;2023-09-08T06:23:00;4.65;;;3.10;;
66603;SDS011;53460;39.612;8.822;2023-09-08T06:25:26;18.08;;;4.13;;
66603;SDS011;53460;39.612;8.822;2023-09-08T06:27:53;10.43;;;4.00;;
66603;SDS011;53460;39.612;8.822;2023-09-08T06:30:19;11.70;;;3.22;;
66603;SDS011;53460;39.612;8.822;2023-09-08T06:32:44;10.95;;;3.85;;
66603;SDS011;53460;39.612;8.822;2023-09-08T06:35:10;7.43;;;3.70;;
66603;SDS011;53460;39.612;8.822;2023-09-08T06:37:36;8.05;;;3.40;;
66603;SDS011;53460;39.612;8.822;2023-09-08T06:40:02;8.88;;;3.20;;
66603;SDS011;53460;39.612;8.822;2023-09-08T06:42:28;5.53;;;3.22;;
66603;SDS011;53460;39.612;8.822;2023-09-08T06:45:02;5.43;;;2.67;;
66603;SDS011;53460;39.612;8.822;2023-09-08T06:47:28;4.60;;;2.97;;
66603;SDS011;53460;39.612;8.822;2023-09-08T06:49:54;4.03;;;2.75;;
66603;SDS011;53460;39.612;8.822;2023-09-08T06:52:19;5.97;;;3.05;;
66603;SDS011;53460;39.612;8.822;2023-09-08T06:54:45;6.50;;;2.78;;
66603;SDS011;53460;39.612;8.822;2023-09-08T06:57:12;14.73;;;3.13;;
66603;SDS011;53460;39.612;8.822;2023-09-08T06:59:37;14.00;;;3.05;;
66603;SDS011;53460;39.612;8.822;2023-09-08T07:02:03;5.30;;;3.00;;
66603;SDS011;53460;39.612;8.822;2023-09-08T07:04:29;8.13;;;2.90;;
66603;SDS011;53460;39.612;8.822;2023-09-08T07:06:55;6.25;;;2.80;;
66603;SDS011;53460;39.612;8.822;2023-09-08T07:09:21;8.70;;;2.70;;
66603;SDS011;53460;39.612;8.822;2023-09-08T07:11:46;13.45;;;2.97;;
66603;SDS011;53460;39.612;8.822;2023-09-08T07:14:12;10.48;;;2.80;;
66603;SDS011;53460;39.612;8.822;2023-09-08T07:16:37;15.60;;;3.10;;
66603;SDS011;53460;39.612;8.822;2023-09-08T07:19:03;9.02;;;3.08;;
66603;SDS011;53460;39.612;8.822;2023-09-08T07:21:29;6.82;;;2.50;;
66603;SDS011;53460;39.612;8.822;2023-09-08T07:23:54;6.85;;;3.13;;
66603;SDS011;53460;39.612;8.822;2023-09-08T07:26:20;5.82;;;2.90;;
66603;SDS011;53460;39.612;8.822;2023-09-08T07:28:46;2.70;;;2.38;;
66603;SDS011;53460;39.612;8.822;2023-09-08T07:31:14;4.68;;;2.63;;
66603;SDS011;53460;39.612;8.822;2023-09-08T07:33:42;7.70;;;2.70;;
66603;SDS011;53460;39.612;8.822;2023-09-08T07:36:08;10.45;;;3.05;;
66603;SDS011;53460;39.612;8.822;2023-09-08T07:38:35;14.77;;;3.20;;
66603;SDS011;53460;39.612;8.822;2023-09-08T07:41:01;10.27;;;3.47;;
66603;SDS011;53460;39.612;8.822;2023-09-08T07:43:28;8.65;;;2.70;;
66603;SDS011;53460;39.612;8.822;2023-09-08T07:45:53;4.30;;;3.00;;
66603;SDS011;53460;39.612;8.822;2023-09-08T07:48:19;11.52;;;2.90;;
66603;SDS011;53460;39.612;8.822;2023-09-08T07:50:44;9.73;;;2.55;;
66603;SDS011;53460;39.612;8.822;2023-09-08T07:53:10;7.18;;;2.88;;
66603;SDS011;53460;39.612;8.822;2023-09-08T07:55:36;2.72;;;2.30;;
66603;SDS011;53460;39.612;8.822;2023-09-08T07:58:01;5.85;;;3.45;;
66603;SDS011;53460;39.612;8.822;2023-09-08T08:00:29;7.80;;;2.88;;
66603;SDS011;53460;39.612;8.822;2023-09-08T08:02:54;3.88;;;2.72;;
66603;SDS011;53460;39.612;8.822;2023-09-08T08:05:20;8.30;;;3.17;;
66603;SDS011;53460;39.612;8.822;2023-09-08T08:07:46;6.28;;;2.45;;
66603;SDS011;53460;39.612;8.822;2023-09-08T08:10:11;4.15;;;2.55;;
66603;SDS011;53460;39.612;8.822;2023-09-08T08:12:38;3.03;;;2.65;;
66603;SDS011;53460;39.612;8.822;2023-09-08T08:15:03;4.38;;;2.60;;
66603;SDS011;53460;39.612;8.822;2023-09-08T08:17:30;2.72;;;2.47;;
66603;SDS011;53460;39.612;8.822;2023-09-08T08:19:56;3.25;;;2.50;;
66603;SDS011;53460;39.612;8.822;2023-09-08T08:22:26;3.92;;;2.40;;
66603;SDS011;53460;39.612;8.822;2023-09-08T08:24:51;6.13;;;2.95;;
66603;SDS011;53460;39.612;8.822;2023-09-08T08:27:17;5.15;;;2.35;;
66603;SDS011;53460;39.612;8.822;2023-09-08T08:29:42;5.55;;;2.55;;
66603;SDS011;53460;39.612;8.822;2023-09-08T08:32:08;2.80;;;2.47;;
66603;SDS011;53460;39.612;8.822;2023-09-08T08:34:34;19.10;;;4.15;;
66603;SDS011;53460;39.612;8.822;2023-09-08T08:36:59;3.45;;;2.22;;
66603;SDS011;53460;39.612;8.822;2023-09-08T08:39:25;4.35;;;2.42;;
66603;SDS011;53460;39.612;8.822;2023-09-08T08:41:50;3.72;;;2.42;;
66603;SDS011;53460;39.612;8.822;2023-09-08T08:44:17;2.67;;;2.47;;
66603;SDS011;53460;39.612;8.822;2023-09-08T08:46:43;4.55;;;2.42;;
66603;SDS011;53460;39.612;8.822;2023-09-08T08:49:10;3.50;;;2.28;;
66603;SDS011;53460;39.612;8.822;2023-09-08T08:51:35;2.17;;;1.98;;
66603;SDS011;53460;39.612;8.822;2023-09-08T08:54:01;3.97;;;2.28;;
66603;SDS011;53460;39.612;8.822;2023-09-08T08:56:30;6.47;;;2.42;;
66603;SDS011;53460;39.612;8.822;2023-09-08T08:58:55;10.60;;;2.58;;
66603;SDS011;53460;39.612;8.822;2023-09-08T09:01:22;2.60;;;2.00;;
66603;SDS011;53460;39.612;8.822;2023-09-08T09:03:49;3.88;;;2.20;;
66603;SDS011;53460;39.612;8.822;2023-09-08T09:06:15;3.88;;;2.20;;
66603;SDS011;53460;39.612;8.822;2023-09-08T09:08:44;5.78;;;2.20;;
66603;SDS011;53460;39.612;8.822;2023-09-08T09:11:10;4.47;;;2.28;;
66603;SDS011;53460;39.612;8.822;2023-09-08T09:13:36;4.35;;;2.13;;
66603;SDS011;53460;39.612;8.822;2023-09-08T09:16:04;3.67;;;2.20;;
66603;SDS011;53460;39.612;8.822;2023-09-08T09:18:33;2.53;;;2.25;;
66603;SDS011;53460;39.612;8.822;2023-09-08T09:20:59;6.03;;;2.20;;
66603;SDS011;53460;39.612;8.822;2023-09-08T09:23:32;4.80;;;2.55;;
66603;SDS011;53460;39.612;8.822;2023-09-08T09:25:58;3.90;;;2.15;;
66603;SDS011;53460;39.612;8.822;2023-09-08T09:28:24;6.47;;;2.60;;
66603;SDS011;53460;39.612;8.822;2023-09-08T09:30:50;4.90;;;2.10;;
66603;SDS011;53460;39.612;8.822;2023-09-08T09:33:16;2.42;;;2.10;;
66603;SDS011;53460;39.612;8.822;2023-09-08T09:35:46;6.32;;;2.30;;
66603;SDS011;53460;39.612;8.822;2023-09-08T09:38:12;5.85;;;2.40;;
66603;SDS011;53460;39.612;8.822;2023-09-08T09:40:37;2.20;;;2.10;;
66603;SDS011;53460;39.612;8.822;2023-09-08T09:43:04;2.40;;;2.00;;
66603;SDS011;53460;39.612;8.822;2023-09-08T09:45:30;3.50;;;2.40;;
66603;SDS011;53460;39.612;8.822;2023-09-08T09:47:55;3.15;;;2.17;;
66603;SDS011;53460;39.612;8.822;2023-09-08T09:50:31;4.18;;;2.45;;
66603;SDS011;53460;39.612;8.822;2023-09-08T09:52:58;5.35;;;2.00;;
66603;SDS011;53460;39.612;8.822;2023-09-08T09:55:27;2.25;;;1.73;;
66603;SDS011;53460;39.612;8.822;2023-09-08T09:57:56;6.40;;;2.05;;
66603;SDS011;53460;39.612;8.822;2023-09-08T10:00:23;2.67;;;2.47;;
66603;SDS011;53460;39.612;8.822;2023-09-08T10:02:49;5.72;;;4.35;;
66603;SDS011;53460;39.612;8.822;2023-09-08T10:05:14;5.63;;;3.00;;
66603;SDS011;53460;39.612;8.822;2023-09-08T10:07:40;4.30;;;2.88;;
66603;SDS011;53460;39.612;8.822;2023-09-08T10:10:06;5.15;;;2.10;;
66603;SDS011;53460;39.612;8.822;2023-09-08T10:12:32;9.20;;;2.30;;
66603;SDS011;53460;39.612;8.822;2023-09-08T10:14:58;2.97;;;1.98;;
66603;SDS011;53460;39.612;8.822;2023-09-08T10:17:24;3.08;;;2.05;;
66603;SDS011;53460;39.612;8.822;2023-09-08T10:19:54;2.60;;;2.13;;
66603;SDS011;53460;39.612;8.822;2023-09-08T10:22:23;3.47;;;2.40;;
66603;SDS011;53460;39.612;8.822;2023-09-08T10:24:51;4.85;;;2.08;;
66603;SDS011;53460;39.612;8.822;2023-09-08T10:27:18;3.25;;;1.88;;
66603;SDS011;53460;39.612;8.822;2023-09-08T10:29:46;3.65;;;1.83;;
66603;SDS011;53460;39.612;8.822;2023-09-08T10:32:12;7.53;;;2.20;;
66603;SDS011;53460;39.612;8.822;2023-09-08T10:34:38;2.70;;;2.22;;
66603;SDS011;53460;39.612;8.822;2023-09-08T10:37:18;5.25;;;2.08;;
66603;SDS011;53460;39.612;8.822;2023-09-08T10:39:43;4.57;;;2.00;;
66603;SDS011;53460;39.612;8.822;2023-09-08T10:44:45;4.82;;;1.90;;
66603;SDS011;53460;39.612;8.822;2023-09-08T10:47:30;4.15;;;1.90;;
66603;SDS011;53460;39.612;8.822;2023-09-08T10:49:56;6.35;;;2.25;;
66603;SDS011;53460;39.612;8.822;2023-09-08T10:52:23;4.13;;;2.38;;
66603;SDS011;53460;39.612;8.822;2023-09-08T10:54:50;3.70;;;1.77;;
66603;SDS011;53460;39.612;8.822;2023-09-08T10:57:16;2.75;;;1.95;;
66603;SDS011;53460;39.612;8.822;2023-09-08T10:59:55;1.85;;;1.60;;
66603;SDS011;53460;39.612;8.822;2023-09-08T11:02:36;3.08;;;1.92;;
66603;SDS011;53460;39.612;8.822;2023-09-08T11:05:03;2.80;;;1.85;;
66603;SDS011;53460;39.612;8.822;2023-09-08T11:07:30;2.08;;;1.73;;
66603;SDS011;53460;39.612;8.822;2023-09-08T11:09:56;3.80;;;2.10;;
66603;SDS011;53460;39.612;8.822;2023-09-08T11:12:21;3.17;;;2.00;;
66603;SDS011;53460;39.612;8.822;2023-09-08T11:14:49;1.90;;;1.70;;
66603;SDS011;53460;39.612;8.822;2023-09-08T11:17:15;3.40;;;2.22;;
66603;SDS011;53460;39.612;8.822;2023-09-08T11:19:49;2.33;;;2.13;;
66603;SDS011;53460;39.612;8.822;2023-09-08T11:22:15;2.10;;;1.90;;
66603;SDS011;53460;39.612;8.822;2023-09-08T11:24:41;2.97;;;1.90;;
66603;SDS011;53460;39.612;8.822;2023-09-08T11:27:07;3.40;;;2.13;;
66603;SDS011;53460;39.612;8.822;2023-09-08T11:29:32;2.25;;;2.00;;
66603;SDS011;53460;39.612;8.822;2023-09-08T11:31:58;4.35;;;1.80;;
66603;SDS011;53460;39.612;8.822;2023-09-08T11:34:23;2.33;;;1.80;;
66603;SDS011;53460;39.612;8.822;2023-09-08T11:36:49;3.95;;;2.10;;
66603;SDS011;53460;39.612;8.822;2023-09-08T11:39:14;2.10;;;1.90;;
66603;SDS011;53460;39.612;8.822;2023-09-08T11:41:41;3.25;;;2.20;;
66603;SDS011;53460;39.612;8.822;2023-09-08T11:44:06;3.38;;;2.33;;
66603;SDS011;53460;39.612;8.822;2023-09-08T11:46:32;4.63;;;2.00;;
66603;SDS011;53460;39.612;8.822;2023-09-08T11:48:57;4.47;;;2.30;;
66603;SDS011;53460;39.612;8.822;2023-09-08T11:51:23;3.50;;;2.30;;
66603;SDS011;53460;39.612;8.822;2023-09-08T11:53:49;4.03;;;1.98;;
66603;SDS011;53460;39.612;8.822;2023-09-08T11:56:14;5.88;;;2.30;;
66603;SDS011;53460;39.612;8.822;2023-09-08T11:58:41;2.25;;;2.03;;
66603;SDS011;53460;39.612;8.822;2023-09-08T12:01:06;3.97;;;2.25;;
66603;SDS011;53460;39.612;8.822;2023-09-08T12:03:32;2.30;;;2.10;;
66603;SDS011;53460;39.612;8.822;2023-09-08T12:05:57;1.92;;;1.80;;
66603;SDS011;53460;39.612;8.822;2023-09-08T12:08:24;2.10;;;1.60;;
66603;SDS011;53460;39.612;8.822;2023-09-08T12:10:53;2.25;;;1.77;;
66603;SDS011;53460;39.612;8.822;2023-09-08T12:13:24;4.60;;;2.00;;
66603;SDS011;53460;39.612;8.822;2023-09-08T12:18:15;3.50;;;1.83;;
66603;SDS011;53460;39.612;8.822;2023-09-08T12:20:41;3.53;;;2.30;;
66603;SDS011;53460;39.612;8.822;2023-09-08T12:23:15;3.85;;;1.88;;
66603;SDS011;53460;39.612;8.822;2023-09-08T12:25:47;2.55;;;1.88;;
66603;SDS011;53460;39.612;8.822;2023-09-08T12:28:13;2.90;;;1.80;;
66603;SDS011;53460;39.612;8.822;2023-09-08T12:30:38;2.28;;;1.70;;
66603;SDS011;53460;39.612;8.822;2023-09-08T12:33:04;4.32;;;1.95;;
66603;SDS011;53460;39.612;8.822;2023-09-08T12:35:29;2.17;;;1.50;;
66603;SDS011;53460;39.612;8.822;2023-09-08T12:38:02;3.50;;;1.83;;
66603;SDS011;53460;39.612;8.822;2023-09-08T12:40:28;3.38;;;1.77;;
66603;SDS011;53460;39.612;8.822;2023-09-08T12:42:54;1.95;;;1.70;;
66603;SDS011;53460;39.612;8.822;2023-09-08T12:45:21;3.92;;;1.60;;
66603;SDS011;53460;39.612;8.822;2023-09-08T12:47:47;2.55;;;1.52;;
66603;SDS011;53460;39.612;8.822;2023-09-08T12:50:12;3.28;;;1.80;;
66603;SDS011;53460;39.612;8.822;2023-09-08T12:52:40;3.70;;;1.80;;
66603;SDS011;53460;39.612;8.822;2023-09-08T12:55:06;10.13;;;1.90;;
66603;SDS011;53460;39.612;8.822;2023-09-08T12:57:32;1.88;;;1.73;;
66603;SDS011;53460;39.612;8.822;2023-09-08T12:59:57;1.73;;;1.40;;
66603;SDS011;53460;39.612;8.822;2023-09-08T13:02:23;1.80;;;1.70;;
66603;SDS011;53460;39.612;8.822;2023-09-08T13:04:48;2.05;;;1.60;;
66603;SDS011;53460;39.612;8.822;2023-09-08T13:07:14;2.75;;;1.60;;
66603;SDS011;53460;39.612;8.822;2023-09-08T13:09:40;3.58;;;1.67;;
66603;SDS011;53460;39.612;8.822;2023-09-08T13:12:05;1.60;;;1.50;;
66603;SDS011;53460;39.612;8.822;2023-09-08T13:14:31;3.67;;;1.55;;
66603;SDS011;53460;39.612;8.822;2023-09-08T13:16:56;2.90;;;1.70;;
66603;SDS011;53460;39.612;8.822;2023-09-08T13:19:22;2.50;;;1.77;;
66603;SDS011;53460;39.612;8.822;2023-09-08T13:21:47;3.25;;;1.55;;
66603;SDS011;53460;39.612;8.822;2023-09-08T13:24:13;2.40;;;1.70;;
66603;SDS011;53460;39.612;8.822;2023-09-08T13:26:38;3.05;;;1.83;;
66603;SDS011;53460;39.612;8.822;2023-09-08T13:29:04;3.72;;;1.75;;
66603;SDS011;53460;39.612;8.822;2023-09-08T13:31:29;2.88;;;1.67;;
66603;SDS011;53460;39.612;8.822;2023-09-08T13:33:54;1.85;;;1.55;;
66603;SDS011;53460;39.612;8.822;2023-09-08T13:36:20;2.65;;;1.50;;
66603;SDS011;53460;39.612;8.822;2023-09-08T13:38:45;3.30;;;1.58;;
66603;SDS011;53460;39.612;8.822;2023-09-08T13:41:11;5.53;;;1.60;;
66603;SDS011;53460;39.612;8.822;2023-09-08T13:43:36;6.13;;;2.28;;
66603;SDS011;53460;39.612;8.822;2023-09-08T13:46:02;2.83;;;1.70;;
66603;SDS011;53460;39.612;8.822;2023-09-08T13:48:28;3.47;;;1.70;;
66603;SDS011;53460;39.612;8.822;2023-09-08T13:50:53;1.70;;;1.55;;
66603;SDS011;53460;39.612;8.822;2023-09-08T13:53:19;3.72;;;1.65;;
66603;SDS011;53460;39.612;8.822;2023-09-08T13:55:44;2.20;;;1.65;;
66603;SDS011;53460;39.612;8.822;2023-09-08T13:58:10;3.13;;;1.77;;
66603;SDS011;53460;39.612;8.822;2023-09-08T14:00:36;4.22;;;1.80;;
66603;SDS011;53460;39.612;8.822;2023-09-08T14:03:01;2.72;;;1.98;;
66603;SDS011;53460;39.612;8.822;2023-09-08T14:05:27;6.10;;;1.80;;
66603;SDS011;53460;39.612;8.822;2023-09-08T14:07:52;2.60;;;1.60;;
66603;SDS011;53460;39.612;8.822;2023-09-08T14:10:18;1.98;;;1.88;;
66603;SDS011;53460;39.612;8.822;2023-09-08T14:12:43;3.28;;;2.03;;
66603;SDS011;53460;39.612;8.822;2023-09-08T14:15:09;3.45;;;1.88;;
66603;SDS011;53460;39.612;8.822;2023-09-08T14:17:34;1.52;;;1.42;;
66603;SDS011;53460;39.612;8.822;2023-09-08T14:20:00;3.15;;;1.55;;
66603;SDS011;53460;39.612;8.822;2023-09-08T14:22:25;2.28;;;1.52;;
66603;SDS011;53460;39.612;8.822;2023-09-08T14:24:51;3.60;;;1.58;;
66603;SDS011;53460;39.612;8.822;2023-09-08T14:27:17;1.88;;;1.40;;
66603;SDS011;53460;39.612;8.822;2023-09-08T14:29:43;1.92;;;1.48;;
66603;SDS011;53460;39.612;8.822;2023-09-08T14:32:08;4.82;;;1.70;;
66603;SDS011;53460;39.612;8.822;2023-09-08T14:34:34;3.00;;;1.40;;
66603;SDS011;53460;39.612;8.822;2023-09-08T14:36:59;6.05;;;1.60;;
66603;SDS011;53460;39.612;8.822;2023-09-08T14:39:25;2.95;;;1.70;;
66603;SDS011;53460;39.612;8.822;2023-09-08T14:41:51;3.85;;;2.00;;
66603;SDS011;53460;39.612;8.822;2023-09-08T14:44:18;2.38;;;1.85;;
66603;SDS011;53460;39.612;8.822;2023-09-08T14:46:43;5.57;;;1.77;;
66603;SDS011;53460;39.612;8.822;2023-09-08T14:49:09;2.60;;;1.50;;